Maribel — LAGU6 — position and weather

sailwx.info

Track history (hours):
 
Tides and Currents Weather Stations Pressure Air Temp Water Temp Dewpoint Dewpoint Depression Visibility Wind Speed Wind Dir Waves Ship Positions

Maribel

Last reported at 2015-Aug-28 23:33 UTC. Time now 2015-Aug-31 23:56 UTC.
Position N 33°43' W 013°26'.

Length 227 m; draft 13 m.

Type: Tanker. MMSI: 257872000.

Date/timePositionNaut miles runAvg speedWind from/ knotsBaromVisibWave heightAir tempDewpointWater temp
2015-Aug-28 23:33N 33°43' W 013°26'1612.0
2015-Aug-28 22:10N 33°59' W 013°21'811.9
2015-Aug-28 21:30N 34°06' W 013°19'9512.0
2015-Aug-28 13:33N 35°39' W 012°52'16712.6
2015-Aug-28 00:16N 38°22' W 012°04'1212.2
2015-Aug-27 23:15N 38°34' W 011°60'912.1
2015-Aug-27 22:29N 38°43' W 011°57'1112.1
2015-Aug-27 21:34N 38°54' W 011°53'1211.8
2015-Aug-27 20:33N 39°05' W 011°50'1211.6
2015-Aug-27 19:33N 39°17' W 011°46'  
2015-Aug-25 02:16N 49°22' W 004°34'811.2
2015-Aug-25 01:33N 49°27' W 004°24'18010.9
2015-Aug-24 09:06N 50°29' W 000°02'1 2.5
2015-Aug-24 08:32N 50°30' E 000°00'1111.6
2015-Aug-24 07:33N 50°33' E 000°18'1212.2
2015-Aug-24 06:34N 50°37' E 000°36'1211.6
2015-Aug-24 05:33N 50°44' E 000°50'2211.0
2015-Aug-24 03:33N 50°58' E 001°17'1211.6
2015-Aug-24 02:33N 51°06' E 001°31'1312.6
2015-Aug-24 01:33N 51°13' E 001°47'1212.4
2015-Aug-24 00:33N 51°24' E 001°57'1111.2
2015-Aug-23 23:33N 51°21' E 002°15'1111.3
2015-Aug-23 22:32N 51°23' E 002°33'1010.3
2015-Aug-23 21:33N 51°25' E 002°48'1111.1
2015-Aug-23 20:33N 51°24' E 003°06'1111.1
2015-Aug-23 19:33N 51°25' E 003°24'9 8.7
2015-Aug-23 18:34N 51°26' E 003°38'9 8.8
2015-Aug-23 17:33N 51°21' E 003°49'8 8.0
2015-Aug-23 16:34N 51°26' E 003°59'7 7.4
2015-Aug-23 15:33N 51°23' E 004°09'5 5.4
2015-Aug-23 14:33N 51°21' E 004°17'0 0.1
2015-Aug-23 13:34N 51°21' E 004°17'1 0.6
2015-Aug-23 12:33N 51°20' E 004°18'4 4.5
2015-Aug-23 11:33N 51°16' E 004°21'0 0.0
2015-Aug-23 10:32N 51°16' E 004°21'0 0.0
2015-Aug-23 09:28N 51°16' E 004°21'0 0.0
2015-Aug-23 08:25N 51°16' E 004°21'0 0.0
2015-Aug-23 07:31N 51°16' E 004°21'0 0.0
2015-Aug-23 06:33N 51°16' E 004°21'0 0.0
2015-Aug-23 05:33N 51°16' E 004°21'0 0.0
2015-Aug-23 04:29N 51°16' E 004°21'0 0.0
2015-Aug-23 03:32N 51°16' E 004°21'0 0.0
2015-Aug-23 02:31N 51°16' E 004°21'0 0.0
2015-Aug-23 01:33N 51°16' E 004°21'0 0.0
2015-Aug-23 00:31N 51°16' E 004°21'0 0.0
2015-Aug-22 23:33N 51°16' E 004°21'0 0.0
2015-Aug-22 22:33N 51°16' E 004°21'0 0.0
2015-Aug-22 21:32N 51°16' E 004°21'0 0.0
2015-Aug-22 20:32N 51°16' E 004°21'0 0.0
2015-Aug-22 19:31N 51°16' E 004°21'0 0.0
2015-Aug-22 18:33N 51°16' E 004°21'0 0.0
2015-Aug-22 17:31N 51°16' E 004°21'0 0.0
2015-Aug-22 16:33N 51°16' E 004°21'0 0.0
2015-Aug-22 15:33N 51°16' E 004°21'0 0.0
2015-Aug-22 14:32N 51°16' E 004°21'0 0.0
2015-Aug-22 13:29N 51°16' E 004°21'0 0.0
2015-Aug-22 12:28N 51°16' E 004°21'0 0.0
2015-Aug-22 11:31N 51°16' E 004°21'0 0.0
2015-Aug-22 10:27N 51°16' E 004°21'0 0.0
2015-Aug-22 09:33N 51°16' E 004°21'0 0.0
2015-Aug-22 08:33N 51°16' E 004°21'0 0.0
2015-Aug-22 07:32N 51°16' E 004°21'0 0.0
2015-Aug-22 06:32N 51°16' E 004°21'0 0.0
2015-Aug-22 05:31N 51°16' E 004°21'0 0.0
2015-Aug-22 04:31N 51°16' E 004°21'0 0.0
2015-Aug-22 03:33N 51°16' E 004°21'0 0.0
2015-Aug-22 02:33N 51°16' E 004°21'0 0.0
2015-Aug-22 01:27N 51°16' E 004°21'0 0.0
2015-Aug-22 00:32N 51°16' E 004°21'0 0.0
2015-Aug-21 23:32N 51°16' E 004°21'0 0.0
2015-Aug-21 22:31N 51°16' E 004°21'0 0.0
2015-Aug-21 21:31N 51°16' E 004°21'0 0.0
2015-Aug-21 20:33N 51°16' E 004°21'0 0.0
2015-Aug-21 19:33N 51°16' E 004°21'0 0.0
2015-Aug-21 18:33N 51°16' E 004°21'0 0.0
2015-Aug-21 17:32N 51°16' E 004°21'0 0.0
2015-Aug-21 16:32N 51°16' E 004°21'0 0.0
2015-Aug-21 15:28N 51°16' E 004°21'0 0.0
2015-Aug-21 14:31N 51°16' E 004°21'0 0.0
2015-Aug-21 13:21N 51°16' E 004°21'0 0.0
2015-Aug-21 12:33N 51°16' E 004°21'0 0.0
2015-Aug-21 11:33N 51°16' E 004°21'0 0.0
2015-Aug-21 10:32N 51°16' E 004°21'0 0.0
2015-Aug-21 09:32N 51°16' E 004°21'0 0.0
2015-Aug-21 08:31N 51°16' E 004°21'0 0.0
2015-Aug-21 07:31N 51°16' E 004°21'0 0.0
2015-Aug-21 06:33N 51°16' E 004°21'0 0.0
2015-Aug-21 05:33N 51°16' E 004°21'0 0.0
2015-Aug-21 04:27N 51°16' E 004°21'0 0.0
2015-Aug-21 03:29N 51°16' E 004°21'0 0.0
2015-Aug-21 02:26N 51°16' E 004°21'0 0.0
2015-Aug-21 01:31N 51°16' E 004°21'0 0.0
2015-Aug-21 00:31N 51°16' E 004°21'0 0.0
2015-Aug-20 23:33N 51°16' E 004°21'0 0.0
2015-Aug-20 22:30N 51°16' E 004°21'0 0.0
2015-Aug-20 21:32N 51°16' E 004°21'0 0.0
2015-Aug-20 20:32N 51°16' E 004°21'0 0.0
2015-Aug-20 19:32N 51°16' E 004°21'0 0.0
2015-Aug-20 18:25N 51°16' E 004°21'0 0.0
2015-Aug-20 17:31N 51°16' E 004°21'0 0.0
2015-Aug-20 16:30N 51°16' E 004°21'0 0.0
2015-Aug-20 15:33N 51°16' E 004°21'0 0.0
2015-Aug-20 14:32N 51°16' E 004°21'0 0.0
2015-Aug-20 13:29N 51°16' E 004°21'0 0.0
2015-Aug-20 12:20N 51°16' E 004°21'0 0.0
2015-Aug-20 11:28N 51°16' E 004°21'0 0.0
2015-Aug-20 10:31N 51°16' E 004°21'0 0.0
2015-Aug-20 09:33N 51°16' E 004°21'0 0.0
2015-Aug-20 08:30N 51°16' E 004°21'0 0.0
2015-Aug-20 07:29N 51°16' E 004°21'0 0.0
2015-Aug-20 06:32N 51°16' E 004°21'0 0.0
2015-Aug-20 05:32N 51°16' E 004°21'0 0.0
2015-Aug-20 04:28N 51°16' E 004°21'0 0.0
2015-Aug-20 03:31N 51°16' E 004°21'0 0.0
2015-Aug-20 02:33N 51°16' E 004°21'0 0.0
2015-Aug-20 01:33N 51°16' E 004°21'0 0.0
2015-Aug-20 00:32N 51°16' E 004°21'0 0.0
2015-Aug-19 23:32N 51°16' E 004°21'0 0.0
2015-Aug-19 22:29N 51°16' E 004°21'0 0.0
2015-Aug-19 21:31N 51°16' E 004°21'0 0.0
2015-Aug-19 20:31N 51°16' E 004°21'0 0.0
2015-Aug-19 19:30N 51°16' E 004°21'0 0.0
2015-Aug-19 18:33N 51°16' E 004°21'0 0.0
2015-Aug-19 17:29N 51°16' E 004°21'0 0.0
2015-Aug-19 16:32N 51°16' E 004°21'0 0.0
2015-Aug-19 15:28N 51°16' E 004°21'0 0.0
2015-Aug-19 14:31N 51°16' E 004°21'0 0.0
2015-Aug-19 13:28N 51°16' E 004°21'0 0.0
2015-Aug-19 12:33N 51°16' E 004°21'0 0.0
2015-Aug-19 11:33N 51°16' E 004°21'0 0.0
2015-Aug-19 10:32N 51°16' E 004°21'0 0.4
2015-Aug-19 09:33N 51°17' E 004°21'5 4.6
2015-Aug-19 08:33N 51°21' E 004°17'0 0.0
2015-Aug-19 07:33N 51°21' E 004°17'2 1.9
2015-Aug-19 06:33N 51°21' E 004°14'4 4.3
2015-Aug-19 05:33N 51°22' E 004°08'7 7.0
2015-Aug-19 04:34N 51°23' E 003°56'1110.9
2015-Aug-19 03:33N 51°26' E 003°40'1111.3
2015-Aug-19 02:33N 51°24' E 003°22'1515.0
2015-Aug-19 01:33N 51°23' E 002°58'1110.6
2015-Aug-19 00:33N 51°23' E 002°41'  
Track history (hours):
 
Tides and Currents Weather Stations Pressure Air Temp Water Temp Dewpoint Dewpoint Depression Visibility Wind Speed Wind Dir Waves Ship Positions

Maribel

Last reported at 2015-Aug-28 23:33 UTC. Time now 2015-Aug-31 23:56 UTC.
Position N 33°43' W 013°26'.

Length 227 m; draft 13 m.

Type: Tanker. MMSI: 257872000.

Date/timePositionNaut miles runAvg speedWind from/ knotsBaromVisibWave heightAir tempDewpointWater temp
2015-Aug-28 23:33N 33°43' W 013°26'1612.0
2015-Aug-28 22:10N 33°59' W 013°21'811.9
2015-Aug-28 21:30N 34°06' W 013°19'9512.0
2015-Aug-28 13:33N 35°39' W 012°52'16712.6
2015-Aug-28 00:16N 38°22' W 012°04'1212.2
2015-Aug-27 23:15N 38°34' W 011°60'912.1
2015-Aug-27 22:29N 38°43' W 011°57'1112.1
2015-Aug-27 21:34N 38°54' W 011°53'1211.8
2015-Aug-27 20:33N 39°05' W 011°50'1211.6
2015-Aug-27 19:33N 39°17' W 011°46'  
2015-Aug-25 02:16N 49°22' W 004°34'811.2
2015-Aug-25 01:33N 49°27' W 004°24'18010.9
2015-Aug-24 09:06N 50°29' W 000°02'1 2.5
2015-Aug-24 08:32N 50°30' E 000°00'1111.6
2015-Aug-24 07:33N 50°33' E 000°18'1212.2
2015-Aug-24 06:34N 50°37' E 000°36'1211.6
2015-Aug-24 05:33N 50°44' E 000°50'2211.0
2015-Aug-24 03:33N 50°58' E 001°17'1211.6
2015-Aug-24 02:33N 51°06' E 001°31'1312.6
2015-Aug-24 01:33N 51°13' E 001°47'1212.4
2015-Aug-24 00:33N 51°24' E 001°57'1111.2
2015-Aug-23 23:33N 51°21' E 002°15'1111.3
2015-Aug-23 22:32N 51°23' E 002°33'1010.3
2015-Aug-23 21:33N 51°25' E 002°48'1111.1
2015-Aug-23 20:33N 51°24' E 003°06'1111.1
2015-Aug-23 19:33N 51°25' E 003°24'9 8.7
2015-Aug-23 18:34N 51°26' E 003°38'9 8.8
2015-Aug-23 17:33N 51°21' E 003°49'8 8.0
2015-Aug-23 16:34N 51°26' E 003°59'7 7.4
2015-Aug-23 15:33N 51°23' E 004°09'5 5.4
2015-Aug-23 14:33N 51°21' E 004°17'0 0.1
2015-Aug-23 13:34N 51°21' E 004°17'1 0.6
2015-Aug-23 12:33N 51°20' E 004°18'4 4.5
2015-Aug-23 11:33N 51°16' E 004°21'0 0.0
2015-Aug-23 10:32N 51°16' E 004°21'0 0.0
2015-Aug-23 09:28N 51°16' E 004°21'0 0.0
2015-Aug-23 08:25N 51°16' E 004°21'0 0.0
2015-Aug-23 07:31N 51°16' E 004°21'0 0.0
2015-Aug-23 06:33N 51°16' E 004°21'0 0.0
2015-Aug-23 05:33N 51°16' E 004°21'0 0.0
2015-Aug-23 04:29N 51°16' E 004°21'0 0.0
2015-Aug-23 03:32N 51°16' E 004°21'0 0.0
2015-Aug-23 02:31N 51°16' E 004°21'0 0.0
2015-Aug-23 01:33N 51°16' E 004°21'0 0.0
2015-Aug-23 00:31N 51°16' E 004°21'0 0.0
2015-Aug-22 23:33N 51°16' E 004°21'0 0.0
2015-Aug-22 22:33N 51°16' E 004°21'0 0.0
2015-Aug-22 21:32N 51°16' E 004°21'0 0.0
2015-Aug-22 20:32N 51°16' E 004°21'0 0.0
2015-Aug-22 19:31N 51°16' E 004°21'0 0.0
2015-Aug-22 18:33N 51°16' E 004°21'0 0.0
2015-Aug-22 17:31N 51°16' E 004°21'0 0.0
2015-Aug-22 16:33N 51°16' E 004°21'0 0.0
2015-Aug-22 15:33N 51°16' E 004°21'0 0.0
2015-Aug-22 14:32N 51°16' E 004°21'0 0.0
2015-Aug-22 13:29N 51°16' E 004°21'0 0.0
2015-Aug-22 12:28N 51°16' E 004°21'0 0.0
2015-Aug-22 11:31N 51°16' E 004°21'0 0.0
2015-Aug-22 10:27N 51°16' E 004°21'0 0.0
2015-Aug-22 09:33N 51°16' E 004°21'0 0.0
2015-Aug-22 08:33N 51°16' E 004°21'0 0.0
2015-Aug-22 07:32N 51°16' E 004°21'0 0.0
2015-Aug-22 06:32N 51°16' E 004°21'0 0.0
2015-Aug-22 05:31N 51°16' E 004°21'0 0.0
2015-Aug-22 04:31N 51°16' E 004°21'0 0.0
2015-Aug-22 03:33N 51°16' E 004°21'0 0.0
2015-Aug-22 02:33N 51°16' E 004°21'0 0.0
2015-Aug-22 01:27N 51°16' E 004°21'0 0.0
2015-Aug-22 00:32N 51°16' E 004°21'0 0.0
2015-Aug-21 23:32N 51°16' E 004°21'0 0.0
2015-Aug-21 22:31N 51°16' E 004°21'0 0.0
2015-Aug-21 21:31N 51°16' E 004°21'0 0.0
2015-Aug-21 20:33N 51°16' E 004°21'0 0.0
2015-Aug-21 19:33N 51°16' E 004°21'0 0.0
2015-Aug-21 18:33N 51°16' E 004°21'0 0.0
2015-Aug-21 17:32N 51°16' E 004°21'0 0.0
2015-Aug-21 16:32N 51°16' E 004°21'0 0.0
2015-Aug-21 15:28N 51°16' E 004°21'0 0.0
2015-Aug-21 14:31N 51°16' E 004°21'0 0.0
2015-Aug-21 13:21N 51°16' E 004°21'0 0.0
2015-Aug-21 12:33N 51°16' E 004°21'0 0.0
2015-Aug-21 11:33N 51°16' E 004°21'0 0.0
2015-Aug-21 10:32N 51°16' E 004°21'0 0.0
2015-Aug-21 09:32N 51°16' E 004°21'0 0.0
2015-Aug-21 08:31N 51°16' E 004°21'0 0.0
2015-Aug-21 07:31N 51°16' E 004°21'0 0.0
2015-Aug-21 06:33N 51°16' E 004°21'0 0.0
2015-Aug-21 05:33N 51°16' E 004°21'0 0.0
2015-Aug-21 04:27N 51°16' E 004°21'0 0.0
2015-Aug-21 03:29N 51°16' E 004°21'0 0.0
2015-Aug-21 02:26N 51°16' E 004°21'0 0.0
2015-Aug-21 01:31N 51°16' E 004°21'0 0.0
2015-Aug-21 00:31N 51°16' E 004°21'0 0.0
2015-Aug-20 23:33N 51°16' E 004°21'0 0.0
2015-Aug-20 22:30N 51°16' E 004°21'0 0.0
2015-Aug-20 21:32N 51°16' E 004°21'0 0.0
2015-Aug-20 20:32N 51°16' E 004°21'0 0.0
2015-Aug-20 19:32N 51°16' E 004°21'0 0.0
2015-Aug-20 18:25N 51°16' E 004°21'0 0.0
2015-Aug-20 17:31N 51°16' E 004°21'0 0.0
2015-Aug-20 16:30N 51°16' E 004°21'0 0.0
2015-Aug-20 15:33N 51°16' E 004°21'0 0.0
2015-Aug-20 14:32N 51°16' E 004°21'0 0.0
2015-Aug-20 13:29N 51°16' E 004°21'0 0.0
2015-Aug-20 12:20N 51°16' E 004°21'0 0.0
2015-Aug-20 11:28N 51°16' E 004°21'0 0.0
2015-Aug-20 10:31N 51°16' E 004°21'0 0.0
2015-Aug-20 09:33N 51°16' E 004°21'0 0.0
2015-Aug-20 08:30N 51°16' E 004°21'0 0.0
2015-Aug-20 07:29N 51°16' E 004°21'0 0.0
2015-Aug-20 06:32N 51°16' E 004°21'0 0.0
2015-Aug-20 05:32N 51°16' E 004°21'0 0.0
2015-Aug-20 04:28N 51°16' E 004°21'0 0.0
2015-Aug-20 03:31N 51°16' E 004°21'0 0.0
2015-Aug-20 02:33N 51°16' E 004°21'0 0.0
2015-Aug-20 01:33N 51°16' E 004°21'0 0.0
2015-Aug-20 00:32N 51°16' E 004°21'0 0.0
2015-Aug-19 23:32N 51°16' E 004°21'0 0.0
2015-Aug-19 22:29N 51°16' E 004°21'0 0.0
2015-Aug-19 21:31N 51°16' E 004°21'0 0.0
2015-Aug-19 20:31N 51°16' E 004°21'0 0.0
2015-Aug-19 19:30N 51°16' E 004°21'0 0.0
2015-Aug-19 18:33N 51°16' E 004°21'0 0.0
2015-Aug-19 17:29N 51°16' E 004°21'0 0.0
2015-Aug-19 16:32N 51°16' E 004°21'0 0.0
2015-Aug-19 15:28N 51°16' E 004°21'0 0.0
2015-Aug-19 14:31N 51°16' E 004°21'0 0.0
2015-Aug-19 13:28N 51°16' E 004°21'0 0.0
2015-Aug-19 12:33N 51°16' E 004°21'0 0.0
2015-Aug-19 11:33N 51°16' E 004°21'0 0.0
2015-Aug-19 10:32N 51°16' E 004°21'0 0.4
2015-Aug-19 09:33N 51°17' E 004°21'5 4.6
2015-Aug-19 08:33N 51°21' E 004°17'0 0.0
2015-Aug-19 07:33N 51°21' E 004°17'2 1.9
2015-Aug-19 06:33N 51°21' E 004°14'4 4.3
2015-Aug-19 05:33N 51°22' E 004°08'7 7.0
2015-Aug-19 04:34N 51°23' E 003°56'1110.9
2015-Aug-19 03:33N 51°26' E 003°40'1111.3
2015-Aug-19 02:33N 51°24' E 003°22'1515.0
2015-Aug-19 01:33N 51°23' E 002°58'1110.6
2015-Aug-19 00:33N 51°23' E 002°41'  

Dump ship's entire track history